KSFF

Felts Field Airport

Spokane, Washington, USA
METAR KSFF 191653Z 00000KT 1 3/4SM FU OVC034 19/09 A3010 RMK AO2 SLP181 T01940094
Observed Flight Rules
Aug-19 @ 16:53 UTC (18 minutes ago) Instrument Flight Rules
Visibility Clouds Conditions
1 3/4 miles
  • Overcast at 3,400' AGL
  • Smoke
Temperatures Readings
Current 19°C / 66°F
Dewpoint 9°C / 48°F
Humidity 52%
Altimeter 30.1" Hg
Pressure 1018.1 hPa
Elevation 609
METAR KSFF 191653Z 00000KT 1 3/4SM FU OVC034 19/09 A3010 RMK AO2 SLP181 T01940094
Observed Flight Rules
Aug-19 @ 16:53 UTC
(18 minutes ago)
IFR
Clouds
  • Overcast at 3,400' AGL
Conditions
  • Smoke
Temperature Dewpoint
19°C / 66°F 9°C / 48°F
Humidity Altimeter Pressure
52% 30.1" Hg 1018.1 hPa